sensor_id;sensor_type;location;lat;lon;timestamp;P1;durP1;ratioP1;P2;durP2;ratioP2
23404;SDS011;11875;49.356;2.718;2024-03-08T00:01:09;25.90;;;14.53;;
23404;SDS011;11875;49.356;2.718;2024-03-08T00:03:34;26.77;;;14.73;;
23404;SDS011;11875;49.356;2.718;2024-03-08T00:06:00;24.57;;;15.40;;
23404;SDS011;11875;49.356;2.718;2024-03-08T00:08:26;23.50;;;14.43;;
23404;SDS011;11875;49.356;2.718;2024-03-08T00:10:52;27.43;;;14.90;;
23404;SDS011;11875;49.356;2.718;2024-03-08T00:13:17;24.23;;;14.90;;
23404;SDS011;11875;49.356;2.718;2024-03-08T00:15:43;27.23;;;15.47;;
23404;SDS011;11875;49.356;2.718;2024-03-08T00:18:08;26.17;;;14.80;;
23404;SDS011;11875;49.356;2.718;2024-03-08T00:20:35;23.80;;;14.33;;
23404;SDS011;11875;49.356;2.718;2024-03-08T00:23:01;24.17;;;14.60;;
23404;SDS011;11875;49.356;2.718;2024-03-08T00:25:26;23.97;;;15.10;;
23404;SDS011;11875;49.356;2.718;2024-03-08T00:27:52;26.70;;;15.27;;
23404;SDS011;11875;49.356;2.718;2024-03-08T00:30:21;27.30;;;14.70;;
23404;SDS011;11875;49.356;2.718;2024-03-08T00:32:48;26.33;;;14.80;;
23404;SDS011;11875;49.356;2.718;2024-03-08T00:35:13;30.10;;;15.87;;
23404;SDS011;11875;49.356;2.718;2024-03-08T00:37:39;28.30;;;16.70;;
23404;SDS011;11875;49.356;2.718;2024-03-08T00:40:06;27.83;;;15.97;;
23404;SDS011;11875;49.356;2.718;2024-03-08T00:42:34;30.70;;;16.20;;
23404;SDS011;11875;49.356;2.718;2024-03-08T00:45:00;29.53;;;14.40;;
23404;SDS011;11875;49.356;2.718;2024-03-08T00:47:26;25.77;;;15.03;;
23404;SDS011;11875;49.356;2.718;2024-03-08T00:49:52;28.50;;;16.30;;
23404;SDS011;11875;49.356;2.718;2024-03-08T00:52:18;26.73;;;15.93;;
23404;SDS011;11875;49.356;2.718;2024-03-08T00:54:44;29.90;;;16.13;;
23404;SDS011;11875;49.356;2.718;2024-03-08T00:57:10;28.10;;;15.60;;
23404;SDS011;11875;49.356;2.718;2024-03-08T00:59:37;29.73;;;15.77;;
23404;SDS011;11875;49.356;2.718;2024-03-08T01:02:03;29.90;;;16.67;;
23404;SDS011;11875;49.356;2.718;2024-03-08T01:04:29;27.27;;;16.37;;
23404;SDS011;11875;49.356;2.718;2024-03-08T01:06:58;35.03;;;16.97;;
23404;SDS011;11875;49.356;2.718;2024-03-08T01:09:24;32.43;;;16.83;;
23404;SDS011;11875;49.356;2.718;2024-03-08T01:11:51;29.37;;;15.73;;
23404;SDS011;11875;49.356;2.718;2024-03-08T01:14:19;30.80;;;16.93;;
23404;SDS011;11875;49.356;2.718;2024-03-08T01:16:47;29.77;;;16.87;;
23404;SDS011;11875;49.356;2.718;2024-03-08T01:19:13;27.40;;;15.90;;
23404;SDS011;11875;49.356;2.718;2024-03-08T01:21:38;27.87;;;15.20;;
23404;SDS011;11875;49.356;2.718;2024-03-08T01:24:04;29.60;;;15.77;;
23404;SDS011;11875;49.356;2.718;2024-03-08T01:26:30;31.73;;;16.70;;
23404;SDS011;11875;49.356;2.718;2024-03-08T01:28:56;32.47;;;16.27;;
23404;SDS011;11875;49.356;2.718;2024-03-08T01:31:21;29.60;;;16.33;;
23404;SDS011;11875;49.356;2.718;2024-03-08T01:33:47;34.73;;;17.53;;
23404;SDS011;11875;49.356;2.718;2024-03-08T01:36:15;30.57;;;16.70;;
23404;SDS011;11875;49.356;2.718;2024-03-08T01:38:41;31.17;;;15.93;;
23404;SDS011;11875;49.356;2.718;2024-03-08T01:41:09;27.20;;;15.83;;
23404;SDS011;11875;49.356;2.718;2024-03-08T01:43:35;32.03;;;16.57;;
23404;SDS011;11875;49.356;2.718;2024-03-08T01:46:01;31.93;;;17.50;;
23404;SDS011;11875;49.356;2.718;2024-03-08T01:48:27;29.17;;;17.20;;
23404;SDS011;11875;49.356;2.718;2024-03-08T01:50:54;29.73;;;16.77;;
23404;SDS011;11875;49.356;2.718;2024-03-08T01:53:20;29.63;;;16.67;;
23404;SDS011;11875;49.356;2.718;2024-03-08T01:55:48;36.23;;;18.23;;
23404;SDS011;11875;49.356;2.718;2024-03-08T01:58:14;36.37;;;18.33;;
23404;SDS011;11875;49.356;2.718;2024-03-08T02:00:44;30.87;;;17.50;;
23404;SDS011;11875;49.356;2.718;2024-03-08T02:03:11;31.40;;;16.90;;
23404;SDS011;11875;49.356;2.718;2024-03-08T02:05:38;30.70;;;16.30;;
23404;SDS011;11875;49.356;2.718;2024-03-08T02:08:05;33.33;;;17.23;;
23404;SDS011;11875;49.356;2.718;2024-03-08T02:10:38;35.30;;;18.10;;
23404;SDS011;11875;49.356;2.718;2024-03-08T02:13:04;29.10;;;16.47;;
23404;SDS011;11875;49.356;2.718;2024-03-08T02:18:24;31.23;;;16.33;;
23404;SDS011;11875;49.356;2.718;2024-03-08T02:20:54;30.93;;;17.43;;
23404;SDS011;11875;49.356;2.718;2024-03-08T02:23:21;33.90;;;17.43;;
23404;SDS011;11875;49.356;2.718;2024-03-08T02:25:49;28.87;;;16.17;;
23404;SDS011;11875;49.356;2.718;2024-03-08T02:28:15;32.30;;;17.77;;
23404;SDS011;11875;49.356;2.718;2024-03-08T02:30:43;32.70;;;17.70;;
23404;SDS011;11875;49.356;2.718;2024-03-08T02:33:12;33.03;;;17.33;;
23404;SDS011;11875;49.356;2.718;2024-03-08T02:35:41;37.13;;;17.57;;
23404;SDS011;11875;49.356;2.718;2024-03-08T02:38:10;36.17;;;17.90;;
23404;SDS011;11875;49.356;2.718;2024-03-08T02:40:37;32.63;;;17.37;;
23404;SDS011;11875;49.356;2.718;2024-03-08T02:43:02;32.70;;;17.17;;
23404;SDS011;11875;49.356;2.718;2024-03-08T02:45:29;31.60;;;17.90;;
23404;SDS011;11875;49.356;2.718;2024-03-08T02:47:55;35.53;;;18.37;;
23404;SDS011;11875;49.356;2.718;2024-03-08T02:50:21;37.53;;;18.10;;
23404;SDS011;11875;49.356;2.718;2024-03-08T02:52:47;33.87;;;17.43;;
23404;SDS011;11875;49.356;2.718;2024-03-08T02:55:13;36.23;;;17.87;;
23404;SDS011;11875;49.356;2.718;2024-03-08T02:57:42;34.93;;;18.67;;
23404;SDS011;11875;49.356;2.718;2024-03-08T03:00:12;33.77;;;17.80;;
23404;SDS011;11875;49.356;2.718;2024-03-08T03:02:38;34.37;;;17.33;;
23404;SDS011;11875;49.356;2.718;2024-03-08T03:05:04;31.10;;;16.83;;
23404;SDS011;11875;49.356;2.718;2024-03-08T03:07:31;32.70;;;17.40;;
23404;SDS011;11875;49.356;2.718;2024-03-08T03:09:58;37.53;;;18.03;;
23404;SDS011;11875;49.356;2.718;2024-03-08T03:12:25;34.67;;;17.53;;
23404;SDS011;11875;49.356;2.718;2024-03-08T03:14:54;38.87;;;18.70;;
23404;SDS011;11875;49.356;2.718;2024-03-08T03:17:21;41.40;;;19.97;;
23404;SDS011;11875;49.356;2.718;2024-03-08T03:19:47;36.23;;;18.90;;
23404;SDS011;11875;49.356;2.718;2024-03-08T03:22:13;35.80;;;17.70;;
23404;SDS011;11875;49.356;2.718;2024-03-08T03:24:38;36.43;;;18.50;;
23404;SDS011;11875;49.356;2.718;2024-03-08T03:27:04;37.20;;;17.37;;
23404;SDS011;11875;49.356;2.718;2024-03-08T03:29:36;33.70;;;17.60;;
23404;SDS011;11875;49.356;2.718;2024-03-08T03:32:07;38.23;;;18.83;;
23404;SDS011;11875;49.356;2.718;2024-03-08T03:34:33;40.20;;;18.40;;
23404;SDS011;11875;49.356;2.718;2024-03-08T03:37:02;37.33;;;18.37;;
23404;SDS011;11875;49.356;2.718;2024-03-08T03:39:29;38.97;;;18.70;;
23404;SDS011;11875;49.356;2.718;2024-03-08T03:41:57;40.33;;;18.17;;
23404;SDS011;11875;49.356;2.718;2024-03-08T03:44:23;40.20;;;19.17;;
23404;SDS011;11875;49.356;2.718;2024-03-08T03:46:49;39.00;;;17.70;;
23404;SDS011;11875;49.356;2.718;2024-03-08T03:49:15;37.17;;;18.03;;
23404;SDS011;11875;49.356;2.718;2024-03-08T03:51:42;39.93;;;19.40;;
23404;SDS011;11875;49.356;2.718;2024-03-08T03:54:07;35.27;;;17.30;;
23404;SDS011;11875;49.356;2.718;2024-03-08T03:56:33;38.60;;;19.93;;
23404;SDS011;11875;49.356;2.718;2024-03-08T03:58:59;38.00;;;18.77;;
23404;SDS011;11875;49.356;2.718;2024-03-08T04:01:24;43.83;;;19.27;;
23404;SDS011;11875;49.356;2.718;2024-03-08T04:03:50;39.83;;;19.67;;
23404;SDS011;11875;49.356;2.718;2024-03-08T04:06:15;43.57;;;20.87;;
23404;SDS011;11875;49.356;2.718;2024-03-08T04:08:41;39.10;;;19.83;;
23404;SDS011;11875;49.356;2.718;2024-03-08T04:11:07;39.53;;;19.77;;
23404;SDS011;11875;49.356;2.718;2024-03-08T04:13:36;35.87;;;19.10;;
23404;SDS011;11875;49.356;2.718;2024-03-08T04:16:01;41.57;;;19.50;;
23404;SDS011;11875;49.356;2.718;2024-03-08T04:18:27;39.20;;;19.50;;
23404;SDS011;11875;49.356;2.718;2024-03-08T04:20:53;42.27;;;20.57;;
23404;SDS011;11875;49.356;2.718;2024-03-08T04:23:19;38.17;;;19.53;;
23404;SDS011;11875;49.356;2.718;2024-03-08T04:25:45;35.13;;;18.07;;
23404;SDS011;11875;49.356;2.718;2024-03-08T04:28:11;39.27;;;19.13;;
23404;SDS011;11875;49.356;2.718;2024-03-08T04:30:37;39.30;;;19.07;;
23404;SDS011;11875;49.356;2.718;2024-03-08T04:33:04;37.97;;;18.87;;
23404;SDS011;11875;49.356;2.718;2024-03-08T04:35:32;38.77;;;19.50;;
23404;SDS011;11875;49.356;2.718;2024-03-08T04:37:58;43.27;;;19.97;;
23404;SDS011;11875;49.356;2.718;2024-03-08T04:40:24;39.73;;;19.07;;
23404;SDS011;11875;49.356;2.718;2024-03-08T04:42:49;39.10;;;17.73;;
23404;SDS011;11875;49.356;2.718;2024-03-08T04:45:16;37.30;;;18.70;;
23404;SDS011;11875;49.356;2.718;2024-03-08T04:47:42;41.43;;;19.17;;
23404;SDS011;11875;49.356;2.718;2024-03-08T04:50:07;39.73;;;19.93;;
23404;SDS011;11875;49.356;2.718;2024-03-08T04:52:36;40.60;;;18.70;;
23404;SDS011;11875;49.356;2.718;2024-03-08T04:55:02;34.77;;;17.93;;
23404;SDS011;11875;49.356;2.718;2024-03-08T04:57:30;38.13;;;19.90;;
23404;SDS011;11875;49.356;2.718;2024-03-08T04:59:57;38.10;;;19.60;;
23404;SDS011;11875;49.356;2.718;2024-03-08T05:02:24;41.90;;;20.03;;
23404;SDS011;11875;49.356;2.718;2024-03-08T05:04:49;40.00;;;19.90;;
23404;SDS011;11875;49.356;2.718;2024-03-08T05:07:15;42.80;;;19.67;;
23404;SDS011;11875;49.356;2.718;2024-03-08T05:09:41;44.37;;;21.83;;
23404;SDS011;11875;49.356;2.718;2024-03-08T05:12:07;43.90;;;19.83;;
23404;SDS011;11875;49.356;2.718;2024-03-08T05:14:33;41.40;;;19.07;;
23404;SDS011;11875;49.356;2.718;2024-03-08T05:17:00;48.57;;;21.30;;
23404;SDS011;11875;49.356;2.718;2024-03-08T05:19:26;40.60;;;20.30;;
23404;SDS011;11875;49.356;2.718;2024-03-08T05:21:51;44.73;;;20.53;;
23404;SDS011;11875;49.356;2.718;2024-03-08T05:24:17;41.40;;;20.37;;
23404;SDS011;11875;49.356;2.718;2024-03-08T05:26:43;43.07;;;20.93;;
23404;SDS011;11875;49.356;2.718;2024-03-08T05:29:09;41.50;;;19.67;;
23404;SDS011;11875;49.356;2.718;2024-03-08T05:31:47;44.97;;;20.17;;
23404;SDS011;11875;49.356;2.718;2024-03-08T05:34:14;38.93;;;20.23;;
23404;SDS011;11875;49.356;2.718;2024-03-08T05:36:41;45.60;;;20.43;;
23404;SDS011;11875;49.356;2.718;2024-03-08T05:39:11;46.30;;;21.40;;
23404;SDS011;11875;49.356;2.718;2024-03-08T05:41:40;46.00;;;22.10;;
23404;SDS011;11875;49.356;2.718;2024-03-08T05:44:06;40.37;;;20.90;;
23404;SDS011;11875;49.356;2.718;2024-03-08T05:46:33;39.40;;;20.73;;
23404;SDS011;11875;49.356;2.718;2024-03-08T05:48:58;40.07;;;20.20;;
23404;SDS011;11875;49.356;2.718;2024-03-08T05:51:24;42.23;;;20.53;;
23404;SDS011;11875;49.356;2.718;2024-03-08T05:53:52;42.10;;;20.20;;
23404;SDS011;11875;49.356;2.718;2024-03-08T05:56:18;38.83;;;19.57;;
23404;SDS011;11875;49.356;2.718;2024-03-08T05:58:44;41.67;;;21.73;;
23404;SDS011;11875;49.356;2.718;2024-03-08T06:01:10;44.53;;;21.97;;
23404;SDS011;11875;49.356;2.718;2024-03-08T06:03:37;45.80;;;21.17;;
23404;SDS011;11875;49.356;2.718;2024-03-08T06:06:11;44.23;;;20.00;;
23404;SDS011;11875;49.356;2.718;2024-03-08T06:08:37;42.30;;;21.00;;
23404;SDS011;11875;49.356;2.718;2024-03-08T06:11:03;42.37;;;20.80;;
23404;SDS011;11875;49.356;2.718;2024-03-08T06:13:29;45.23;;;22.57;;
23404;SDS011;11875;49.356;2.718;2024-03-08T06:15:56;44.50;;;20.00;;
23404;SDS011;11875;49.356;2.718;2024-03-08T06:18:22;39.80;;;19.97;;
23404;SDS011;11875;49.356;2.718;2024-03-08T06:20:47;38.13;;;19.13;;
23404;SDS011;11875;49.356;2.718;2024-03-08T06:23:13;45.23;;;21.33;;
23404;SDS011;11875;49.356;2.718;2024-03-08T06:25:42;44.30;;;23.07;;
23404;SDS011;11875;49.356;2.718;2024-03-08T06:28:09;48.77;;;21.93;;
23404;SDS011;11875;49.356;2.718;2024-03-08T06:30:34;43.57;;;21.27;;
23404;SDS011;11875;49.356;2.718;2024-03-08T06:33:00;43.20;;;21.20;;
23404;SDS011;11875;49.356;2.718;2024-03-08T06:35:25;42.87;;;19.87;;
23404;SDS011;11875;49.356;2.718;2024-03-08T06:37:51;43.53;;;20.67;;
23404;SDS011;11875;49.356;2.718;2024-03-08T06:40:16;41.57;;;21.00;;
23404;SDS011;11875;49.356;2.718;2024-03-08T06:42:42;44.80;;;21.07;;
23404;SDS011;11875;49.356;2.718;2024-03-08T06:45:08;42.37;;;21.23;;
23404;SDS011;11875;49.356;2.718;2024-03-08T06:47:35;37.83;;;20.47;;
23404;SDS011;11875;49.356;2.718;2024-03-08T06:50:02;42.67;;;21.53;;
23404;SDS011;11875;49.356;2.718;2024-03-08T06:52:27;41.67;;;21.07;;
23404;SDS011;11875;49.356;2.718;2024-03-08T06:54:53;40.50;;;19.67;;
23404;SDS011;11875;49.356;2.718;2024-03-08T06:57:18;38.87;;;20.40;;
23404;SDS011;11875;49.356;2.718;2024-03-08T06:59:47;40.17;;;19.63;;
23404;SDS011;11875;49.356;2.718;2024-03-08T07:02:13;41.93;;;20.30;;
23404;SDS011;11875;49.356;2.718;2024-03-08T07:04:38;40.83;;;21.07;;
23404;SDS011;11875;49.356;2.718;2024-03-08T07:07:04;39.00;;;19.10;;
23404;SDS011;11875;49.356;2.718;2024-03-08T07:09:33;37.03;;;18.63;;
23404;SDS011;11875;49.356;2.718;2024-03-08T07:11:58;37.97;;;19.73;;
23404;SDS011;11875;49.356;2.718;2024-03-08T07:14:24;35.83;;;18.53;;
23404;SDS011;11875;49.356;2.718;2024-03-08T07:16:50;40.40;;;21.07;;
23404;SDS011;11875;49.356;2.718;2024-03-08T07:19:16;33.83;;;17.73;;
23404;SDS011;11875;49.356;2.718;2024-03-08T07:21:45;33.33;;;17.33;;
23404;SDS011;11875;49.356;2.718;2024-03-08T07:24:12;40.53;;;18.90;;
23404;SDS011;11875;49.356;2.718;2024-03-08T07:26:57;41.43;;;20.07;;
23404;SDS011;11875;49.356;2.718;2024-03-08T07:29:23;37.90;;;18.80;;
23404;SDS011;11875;49.356;2.718;2024-03-08T07:31:48;35.90;;;19.53;;
23404;SDS011;11875;49.356;2.718;2024-03-08T07:34:27;39.03;;;19.20;;
23404;SDS011;11875;49.356;2.718;2024-03-08T07:36:55;38.70;;;19.53;;
23404;SDS011;11875;49.356;2.718;2024-03-08T07:39:21;39.10;;;20.47;;
23404;SDS011;11875;49.356;2.718;2024-03-08T07:41:48;37.17;;;18.00;;
23404;SDS011;11875;49.356;2.718;2024-03-08T07:44:14;33.07;;;17.83;;
23404;SDS011;11875;49.356;2.718;2024-03-08T07:46:40;35.23;;;18.27;;
23404;SDS011;11875;49.356;2.718;2024-03-08T07:49:06;35.07;;;18.10;;
23404;SDS011;11875;49.356;2.718;2024-03-08T07:51:35;32.10;;;17.70;;
23404;SDS011;11875;49.356;2.718;2024-03-08T07:54:02;32.83;;;17.43;;
23404;SDS011;11875;49.356;2.718;2024-03-08T07:56:29;35.27;;;18.80;;
23404;SDS011;11875;49.356;2.718;2024-03-08T07:58:55;31.00;;;17.70;;
23404;SDS011;11875;49.356;2.718;2024-03-08T08:01:21;31.63;;;17.20;;
23404;SDS011;11875;49.356;2.718;2024-03-08T08:03:47;32.30;;;18.37;;
23404;SDS011;11875;49.356;2.718;2024-03-08T08:06:14;28.10;;;15.70;;
23404;SDS011;11875;49.356;2.718;2024-03-08T08:08:44;26.77;;;15.93;;
23404;SDS011;11875;49.356;2.718;2024-03-08T08:11:10;31.53;;;16.37;;
23404;SDS011;11875;49.356;2.718;2024-03-08T08:13:40;26.33;;;15.87;;
23404;SDS011;11875;49.356;2.718;2024-03-08T08:16:08;32.57;;;16.53;;
23404;SDS011;11875;49.356;2.718;2024-03-08T08:18:34;27.53;;;16.50;;
23404;SDS011;11875;49.356;2.718;2024-03-08T08:21:00;29.27;;;16.23;;
23404;SDS011;11875;49.356;2.718;2024-03-08T08:23:26;26.40;;;16.23;;
23404;SDS011;11875;49.356;2.718;2024-03-08T08:25:51;30.20;;;17.27;;
23404;SDS011;11875;49.356;2.718;2024-03-08T08:28:17;28.07;;;16.50;;
23404;SDS011;11875;49.356;2.718;2024-03-08T08:30:43;28.23;;;16.67;;
23404;SDS011;11875;49.356;2.718;2024-03-08T08:33:10;31.37;;;16.40;;
23404;SDS011;11875;49.356;2.718;2024-03-08T08:35:38;30.17;;;16.40;;
23404;SDS011;11875;49.356;2.718;2024-03-08T08:38:04;26.13;;;16.17;;
23404;SDS011;11875;49.356;2.718;2024-03-08T08:40:30;29.20;;;17.20;;
23404;SDS011;11875;49.356;2.718;2024-03-08T08:42:57;28.27;;;16.57;;
23404;SDS011;11875;49.356;2.718;2024-03-08T08:45:23;25.57;;;15.93;;
23404;SDS011;11875;49.356;2.718;2024-03-08T08:47:49;25.80;;;15.80;;
23404;SDS011;11875;49.356;2.718;2024-03-08T08:50:14;24.20;;;15.23;;
23404;SDS011;11875;49.356;2.718;2024-03-08T08:52:41;25.83;;;15.23;;
23404;SDS011;11875;49.356;2.718;2024-03-08T08:55:10;24.63;;;15.73;;
23404;SDS011;11875;49.356;2.718;2024-03-08T08:57:39;25.60;;;15.00;;
23404;SDS011;11875;49.356;2.718;2024-03-08T09:00:06;25.42;;;15.23;;
23404;SDS011;11875;49.356;2.718;2024-03-08T09:02:33;28.10;;;15.57;;
23404;SDS011;11875;49.356;2.718;2024-03-08T09:04:59;26.90;;;14.88;;
23404;SDS011;11875;49.356;2.718;2024-03-08T09:07:26;28.30;;;16.13;;
23404;SDS011;11875;49.356;2.718;2024-03-08T09:09:52;26.83;;;15.70;;
23404;SDS011;11875;49.356;2.718;2024-03-08T09:12:22;26.17;;;14.97;;
23404;SDS011;11875;49.356;2.718;2024-03-08T09:14:48;27.10;;;15.73;;
23404;SDS011;11875;49.356;2.718;2024-03-08T09:17:14;27.43;;;16.13;;
23404;SDS011;11875;49.356;2.718;2024-03-08T09:19:42;32.10;;;15.83;;
23404;SDS011;11875;49.356;2.718;2024-03-08T09:22:08;26.70;;;14.57;;
23404;SDS011;11875;49.356;2.718;2024-03-08T09:24:36;26.97;;;15.17;;
23404;SDS011;11875;49.356;2.718;2024-03-08T09:27:01;27.88;;;14.38;;
23404;SDS011;11875;49.356;2.718;2024-03-08T09:29:29;26.90;;;15.43;;
23404;SDS011;11875;49.356;2.718;2024-03-08T09:31:54;24.27;;;14.60;;
23404;SDS011;11875;49.356;2.718;2024-03-08T09:34:20;27.40;;;14.47;;
23404;SDS011;11875;49.356;2.718;2024-03-08T09:36:46;24.97;;;14.67;;
23404;SDS011;11875;49.356;2.718;2024-03-08T09:39:12;29.27;;;15.83;;
23404;SDS011;11875;49.356;2.718;2024-03-08T09:41:42;27.63;;;15.73;;
23404;SDS011;11875;49.356;2.718;2024-03-08T09:44:08;24.80;;;14.93;;
23404;SDS011;11875;49.356;2.718;2024-03-08T09:46:34;22.95;;;13.57;;
23404;SDS011;11875;49.356;2.718;2024-03-08T09:49:00;23.77;;;13.93;;
23404;SDS011;11875;49.356;2.718;2024-03-08T09:51:29;21.92;;;12.85;;
23404;SDS011;11875;49.356;2.718;2024-03-08T09:53:59;31.00;;;15.40;;
23404;SDS011;11875;49.356;2.718;2024-03-08T09:56:25;24.13;;;13.70;;
23404;SDS011;11875;49.356;2.718;2024-03-08T09:58:52;22.33;;;13.20;;
23404;SDS011;11875;49.356;2.718;2024-03-08T10:01:27;19.65;;;11.52;;
23404;SDS011;11875;49.356;2.718;2024-03-08T10:03:52;22.40;;;12.18;;
23404;SDS011;11875;49.356;2.718;2024-03-08T10:06:22;19.27;;;11.35;;
23404;SDS011;11875;49.356;2.718;2024-03-08T10:08:49;21.83;;;12.90;;
23404;SDS011;11875;49.356;2.718;2024-03-08T10:11:16;31.23;;;12.60;;
23404;SDS011;11875;49.356;2.718;2024-03-08T10:13:44;22.77;;;12.75;;
23404;SDS011;11875;49.356;2.718;2024-03-08T10:16:11;23.05;;;12.02;;
23404;SDS011;11875;49.356;2.718;2024-03-08T10:18:37;18.95;;;11.35;;
23404;SDS011;11875;49.356;2.718;2024-03-08T10:21:06;19.55;;;10.07;;
23404;SDS011;11875;49.356;2.718;2024-03-08T10:23:35;22.73;;;11.93;;
23404;SDS011;11875;49.356;2.718;2024-03-08T10:26:11;20.42;;;11.82;;
23404;SDS011;11875;49.356;2.718;2024-03-08T10:28:50;20.85;;;11.35;;
23404;SDS011;11875;49.356;2.718;2024-03-08T10:31:18;20.10;;;10.75;;
23404;SDS011;11875;49.356;2.718;2024-03-08T10:33:44;20.58;;;12.70;;
23404;SDS011;11875;49.356;2.718;2024-03-08T10:36:14;21.02;;;11.38;;
23404;SDS011;11875;49.356;2.718;2024-03-08T10:38:41;21.73;;;11.60;;
23404;SDS011;11875;49.356;2.718;2024-03-08T10:41:08;15.45;;;8.75;;
23404;SDS011;11875;49.356;2.718;2024-03-08T10:49:12;19.83;;;9.65;;
23404;SDS011;11875;49.356;2.718;2024-03-08T10:51:47;19.95;;;10.65;;
23404;SDS011;11875;49.356;2.718;2024-03-08T10:54:16;20.80;;;10.82;;
23404;SDS011;11875;49.356;2.718;2024-03-08T10:56:44;23.67;;;12.63;;
23404;SDS011;11875;49.356;2.718;2024-03-08T10:59:10;17.38;;;10.45;;
23404;SDS011;11875;49.356;2.718;2024-03-08T11:01:37;19.70;;;11.45;;
23404;SDS011;11875;49.356;2.718;2024-03-08T11:04:06;18.20;;;10.80;;
23404;SDS011;11875;49.356;2.718;2024-03-08T11:09:49;19.83;;;11.65;;
23404;SDS011;11875;49.356;2.718;2024-03-08T11:11:53;19.20;;;11.77;;
23404;SDS011;11875;49.356;2.718;2024-03-08T11:14:53;20.10;;;11.18;;
23404;SDS011;11875;49.356;2.718;2024-03-08T11:17:52;22.52;;;11.05;;
23404;SDS011;11875;49.356;2.718;2024-03-08T11:20:21;19.25;;;10.57;;
23404;SDS011;11875;49.356;2.718;2024-03-08T11:22:50;21.38;;;10.52;;
23404;SDS011;11875;49.356;2.718;2024-03-08T11:28:16;20.45;;;11.63;;
23404;SDS011;11875;49.356;2.718;2024-03-08T11:30:44;16.73;;;9.27;;
23404;SDS011;11875;49.356;2.718;2024-03-08T11:33:28;16.98;;;9.30;;
23404;SDS011;11875;49.356;2.718;2024-03-08T11:38:45;15.13;;;9.40;;
23404;SDS011;11875;49.356;2.718;2024-03-08T11:41:14;17.40;;;9.68;;
23404;SDS011;11875;49.356;2.718;2024-03-08T11:43:48;16.13;;;9.25;;
23404;SDS011;11875;49.356;2.718;2024-03-08T11:46:15;18.20;;;9.18;;
23404;SDS011;11875;49.356;2.718;2024-03-08T11:48:42;18.40;;;9.00;;
23404;SDS011;11875;49.356;2.718;2024-03-08T11:51:09;16.42;;;8.90;;
23404;SDS011;11875;49.356;2.718;2024-03-08T11:53:37;14.20;;;8.48;;
23404;SDS011;11875;49.356;2.718;2024-03-08T11:58:32;14.43;;;7.97;;
23404;SDS011;11875;49.356;2.718;2024-03-08T12:01:07;14.18;;;7.50;;
23404;SDS011;11875;49.356;2.718;2024-03-08T12:03:37;14.95;;;7.55;;
23404;SDS011;11875;49.356;2.718;2024-03-08T12:06:09;14.43;;;7.75;;
23404;SDS011;11875;49.356;2.718;2024-03-08T12:08:35;13.85;;;6.60;;
23404;SDS011;11875;49.356;2.718;2024-03-08T12:11:03;14.50;;;7.85;;
23404;SDS011;11875;49.356;2.718;2024-03-08T12:13:30;14.63;;;8.43;;
23404;SDS011;11875;49.356;2.718;2024-03-08T12:16:00;23.08;;;7.63;;
23404;SDS011;11875;49.356;2.718;2024-03-08T12:18:32;16.73;;;9.35;;
23404;SDS011;11875;49.356;2.718;2024-03-08T12:21:06;19.50;;;10.40;;
23404;SDS011;11875;49.356;2.718;2024-03-08T12:23:36;18.17;;;9.35;;
23404;SDS011;11875;49.356;2.718;2024-03-08T12:26:12;15.15;;;7.82;;
23404;SDS011;11875;49.356;2.718;2024-03-08T12:28:40;13.10;;;7.60;;
23404;SDS011;11875;49.356;2.718;2024-03-08T12:31:08;15.05;;;7.90;;
23404;SDS011;11875;49.356;2.718;2024-03-08T12:36:24;13.75;;;8.45;;
23404;SDS011;11875;49.356;2.718;2024-03-08T12:38:50;11.38;;;7.05;;
23404;SDS011;11875;49.356;2.718;2024-03-08T12:41:19;14.65;;;7.85;;
23404;SDS011;11875;49.356;2.718;2024-03-08T12:43:46;12.07;;;7.35;;
23404;SDS011;11875;49.356;2.718;2024-03-08T12:46:17;12.15;;;6.97;;
23404;SDS011;11875;49.356;2.718;2024-03-08T12:48:47;15.10;;;7.35;;
23404;SDS011;11875;49.356;2.718;2024-03-08T12:51:13;12.48;;;7.30;;
23404;SDS011;11875;49.356;2.718;2024-03-08T12:53:40;16.20;;;8.55;;
23404;SDS011;11875;49.356;2.718;2024-03-08T12:56:09;12.15;;;6.97;;
23404;SDS011;11875;49.356;2.718;2024-03-08T12:58:36;11.98;;;6.53;;
23404;SDS011;11875;49.356;2.718;2024-03-08T13:01:04;11.15;;;7.07;;
23404;SDS011;11875;49.356;2.718;2024-03-08T13:03:32;13.50;;;7.80;;
23404;SDS011;11875;49.356;2.718;2024-03-08T13:06:00;10.43;;;6.63;;
23404;SDS011;11875;49.356;2.718;2024-03-08T13:08:32;17.08;;;8.55;;
23404;SDS011;11875;49.356;2.718;2024-03-08T13:11:01;10.70;;;6.43;;
23404;SDS011;11875;49.356;2.718;2024-03-08T13:13:26;15.20;;;7.50;;
23404;SDS011;11875;49.356;2.718;2024-03-08T13:15:52;12.82;;;6.72;;
23404;SDS011;11875;49.356;2.718;2024-03-08T13:18:18;12.38;;;7.70;;
23404;SDS011;11875;49.356;2.718;2024-03-08T13:20:43;12.13;;;6.60;;
23404;SDS011;11875;49.356;2.718;2024-03-08T13:23:14;14.23;;;7.72;;
23404;SDS011;11875;49.356;2.718;2024-03-08T13:25:40;13.73;;;7.57;;
23404;SDS011;11875;49.356;2.718;2024-03-08T13:28:06;14.25;;;7.28;;
23404;SDS011;11875;49.356;2.718;2024-03-08T13:30:31;10.15;;;6.32;;
23404;SDS011;11875;49.356;2.718;2024-03-08T13:32:57;13.27;;;8.13;;
23404;SDS011;11875;49.356;2.718;2024-03-08T13:35:23;11.43;;;7.47;;
23404;SDS011;11875;49.356;2.718;2024-03-08T13:37:52;12.63;;;7.30;;
23404;SDS011;11875;49.356;2.718;2024-03-08T13:40:18;12.40;;;7.55;;
23404;SDS011;11875;49.356;2.718;2024-03-08T13:42:45;12.30;;;7.97;;
23404;SDS011;11875;49.356;2.718;2024-03-08T13:45:12;12.50;;;7.72;;
23404;SDS011;11875;49.356;2.718;2024-03-08T13:47:40;13.70;;;7.22;;
23404;SDS011;11875;49.356;2.718;2024-03-08T13:50:07;10.35;;;6.13;;
23404;SDS011;11875;49.356;2.718;2024-03-08T13:52:36;12.48;;;6.97;;
23404;SDS011;11875;49.356;2.718;2024-03-08T13:55:03;12.02;;;6.57;;
23404;SDS011;11875;49.356;2.718;2024-03-08T13:57:30;14.00;;;7.68;;
23404;SDS011;11875;49.356;2.718;2024-03-08T13:59:57;14.52;;;7.35;;
23404;SDS011;11875;49.356;2.718;2024-03-08T14:02:23;11.13;;;6.95;;
23404;SDS011;11875;49.356;2.718;2024-03-08T14:04:53;14.52;;;7.55;;
23404;SDS011;11875;49.356;2.718;2024-03-08T14:07:19;15.85;;;8.90;;
23404;SDS011;11875;49.356;2.718;2024-03-08T14:09:48;17.35;;;9.13;;
23404;SDS011;11875;49.356;2.718;2024-03-08T14:12:15;15.75;;;7.78;;
23404;SDS011;11875;49.356;2.718;2024-03-08T14:14:40;15.73;;;7.85;;
23404;SDS011;11875;49.356;2.718;2024-03-08T14:17:07;11.82;;;7.00;;
23404;SDS011;11875;49.356;2.718;2024-03-08T14:19:35;13.10;;;7.80;;
23404;SDS011;11875;49.356;2.718;2024-03-08T14:22:00;12.50;;;6.80;;
23404;SDS011;11875;49.356;2.718;2024-03-08T14:24:29;12.93;;;7.43;;
23404;SDS011;11875;49.356;2.718;2024-03-08T14:26:55;22.15;;;11.48;;
23404;SDS011;11875;49.356;2.718;2024-03-08T14:29:20;12.38;;;7.72;;
23404;SDS011;11875;49.356;2.718;2024-03-08T14:31:46;11.30;;;7.03;;
23404;SDS011;11875;49.356;2.718;2024-03-08T14:34:11;13.93;;;8.43;;
23404;SDS011;11875;49.356;2.718;2024-03-08T14:36:39;12.32;;;7.70;;
23404;SDS011;11875;49.356;2.718;2024-03-08T14:39:05;11.55;;;6.75;;
23404;SDS011;11875;49.356;2.718;2024-03-08T14:41:32;15.50;;;7.95;;
23404;SDS011;11875;49.356;2.718;2024-03-08T14:43:58;13.98;;;7.63;;
23404;SDS011;11875;49.356;2.718;2024-03-08T14:46:24;10.65;;;6.60;;